sensor_id;sensor_type;location;lat;lon;timestamp;temperature;humidity
53152;DHT22;39234;53.158;6.322;2023-06-10T00:02:08;16.30;99.90
53152;DHT22;39234;53.158;6.322;2023-06-10T00:04:34;16.10;99.90
53152;DHT22;39234;53.158;6.322;2023-06-10T00:07:03;16.10;99.90
53152;DHT22;39234;53.158;6.322;2023-06-10T00:09:37;16.10;99.90
53152;DHT22;39234;53.158;6.322;2023-06-10T00:12:07;16.10;99.90
53152;DHT22;39234;53.158;6.322;2023-06-10T00:14:35;15.90;99.90
53152;DHT22;39234;53.158;6.322;2023-06-10T00:17:00;16.00;99.90
53152;DHT22;39234;53.158;6.322;2023-06-10T00:19:26;16.00;99.90
53152;DHT22;39234;53.158;6.322;2023-06-10T00:21:56;15.90;99.90
53152;DHT22;39234;53.158;6.322;2023-06-10T00:24:22;15.80;99.90
53152;DHT22;39234;53.158;6.322;2023-06-10T00:26:48;15.80;99.90
53152;DHT22;39234;53.158;6.322;2023-06-10T00:29:13;17.70;99.90
53152;DHT22;39234;53.158;6.322;2023-06-10T00:31:40;15.90;99.90
53152;DHT22;39234;53.158;6.322;2023-06-10T00:34:07;15.60;99.90
53152;DHT22;39234;53.158;6.322;2023-06-10T00:36:32;15.80;99.90
53152;DHT22;39234;53.158;6.322;2023-06-10T00:38:58;15.70;99.90
53152;DHT22;39234;53.158;6.322;2023-06-10T00:41:24;15.50;99.90
53152;DHT22;39234;53.158;6.322;2023-06-10T00:43:52;15.60;99.90
53152;DHT22;39234;53.158;6.322;2023-06-10T00:46:17;15.50;99.90
53152;DHT22;39234;53.158;6.322;2023-06-10T00:48:45;15.50;99.90
53152;DHT22;39234;53.158;6.322;2023-06-10T00:51:11;15.60;99.90
53152;DHT22;39234;53.158;6.322;2023-06-10T00:53:39;15.50;99.90
53152;DHT22;39234;53.158;6.322;2023-06-10T00:56:06;15.50;99.90
53152;DHT22;39234;53.158;6.322;2023-06-10T00:58:32;15.40;99.90
53152;DHT22;39234;53.158;6.322;2023-06-10T01:00:58;15.50;99.90
53152;DHT22;39234;53.158;6.322;2023-06-10T01:03:24;15.30;99.90
53152;DHT22;39234;53.158;6.322;2023-06-10T01:06:36;15.30;99.90
53152;DHT22;39234;53.158;6.322;2023-06-10T01:09:28;15.50;99.90
53152;DHT22;39234;53.158;6.322;2023-06-10T01:12:05;15.30;99.90
53152;DHT22;39234;53.158;6.322;2023-06-10T01:14:36;15.10;99.90
53152;DHT22;39234;53.158;6.322;2023-06-10T01:17:02;15.30;99.90
53152;DHT22;39234;53.158;6.322;2023-06-10T01:19:29;15.10;99.90
53152;DHT22;39234;53.158;6.322;2023-06-10T01:21:56;15.00;99.90
53152;DHT22;39234;53.158;6.322;2023-06-10T01:24:26;15.10;99.90
53152;DHT22;39234;53.158;6.322;2023-06-10T01:26:54;15.00;99.90
53152;DHT22;39234;53.158;6.322;2023-06-10T01:29:43;15.10;99.90
53152;DHT22;39234;53.158;6.322;2023-06-10T01:32:43;15.00;99.90
53152;DHT22;39234;53.158;6.322;2023-06-10T01:35:10;14.80;99.90
53152;DHT22;39234;53.158;6.322;2023-06-10T01:37:40;14.90;99.90
53152;DHT22;39234;53.158;6.322;2023-06-10T01:40:08;14.70;99.90
53152;DHT22;39234;53.158;6.322;2023-06-10T01:42:34;14.80;99.90
53152;DHT22;39234;53.158;6.322;2023-06-10T01:45:00;14.70;99.90
53152;DHT22;39234;53.158;6.322;2023-06-10T01:47:26;14.70;99.90
53152;DHT22;39234;53.158;6.322;2023-06-10T01:49:52;14.80;99.90
53152;DHT22;39234;53.158;6.322;2023-06-10T01:52:18;14.70;99.90
53152;DHT22;39234;53.158;6.322;2023-06-10T01:54:44;14.70;99.90
53152;DHT22;39234;53.158;6.322;2023-06-10T01:57:10;14.70;99.90
53152;DHT22;39234;53.158;6.322;2023-06-10T01:59:35;14.80;99.90
53152;DHT22;39234;53.158;6.322;2023-06-10T02:02:04;14.60;99.90
53152;DHT22;39234;53.158;6.322;2023-06-10T02:04:30;14.60;99.90
53152;DHT22;39234;53.158;6.322;2023-06-10T02:06:55;13.10;99.90
53152;DHT22;39234;53.158;6.322;2023-06-10T02:09:22;14.70;99.90
53152;DHT22;39234;53.158;6.322;2023-06-10T02:11:48;14.60;99.90
53152;DHT22;39234;53.158;6.322;2023-06-10T02:14:14;14.50;99.90
53152;DHT22;39234;53.158;6.322;2023-06-10T02:16:40;14.60;99.90
53152;DHT22;39234;53.158;6.322;2023-06-10T02:19:06;14.40;99.90
53152;DHT22;39234;53.158;6.322;2023-06-10T02:21:33;14.60;99.90
53152;DHT22;39234;53.158;6.322;2023-06-10T02:24:00;14.40;99.90
53152;DHT22;39234;53.158;6.322;2023-06-10T02:26:26;14.40;99.90
53152;DHT22;39234;53.158;6.322;2023-06-10T02:28:52;14.40;99.90
53152;DHT22;39234;53.158;6.322;2023-06-10T02:31:18;14.30;99.90
53152;DHT22;39234;53.158;6.322;2023-06-10T02:33:44;14.30;99.90
53152;DHT22;39234;53.158;6.322;2023-06-10T02:36:10;14.30;99.90
53152;DHT22;39234;53.158;6.322;2023-06-10T02:38:41;14.20;99.90
53152;DHT22;39234;53.158;6.322;2023-06-10T02:41:07;14.20;99.90
53152;DHT22;39234;53.158;6.322;2023-06-10T02:43:33;14.00;99.90
53152;DHT22;39234;53.158;6.322;2023-06-10T02:45:59;14.30;99.90
53152;DHT22;39234;53.158;6.322;2023-06-10T02:48:26;14.20;99.90
53152;DHT22;39234;53.158;6.322;2023-06-10T02:50:52;14.10;99.90
53152;DHT22;39234;53.158;6.322;2023-06-10T02:53:17;14.10;99.90
53152;DHT22;39234;53.158;6.322;2023-06-10T02:55:43;14.00;99.90
53152;DHT22;39234;53.158;6.322;2023-06-10T02:58:09;14.10;99.90
53152;DHT22;39234;53.158;6.322;2023-06-10T03:00:35;13.90;99.90
53152;DHT22;39234;53.158;6.322;2023-06-10T03:03:03;13.80;99.90
53152;DHT22;39234;53.158;6.322;2023-06-10T03:05:29;13.80;99.90
53152;DHT22;39234;53.158;6.322;2023-06-10T03:07:55;13.80;99.90
53152;DHT22;39234;53.158;6.322;2023-06-10T03:10:20;13.70;99.90
53152;DHT22;39234;53.158;6.322;2023-06-10T03:12:46;14.00;99.90
53152;DHT22;39234;53.158;6.322;2023-06-10T03:15:12;13.80;99.90
53152;DHT22;39234;53.158;6.322;2023-06-10T03:17:38;13.80;99.90
53152;DHT22;39234;53.158;6.322;2023-06-10T03:20:04;13.60;99.90
53152;DHT22;39234;53.158;6.322;2023-06-10T03:22:36;15.10;99.90
53152;DHT22;39234;53.158;6.322;2023-06-10T03:25:04;13.50;99.90
53152;DHT22;39234;53.158;6.322;2023-06-10T03:27:30;13.70;99.90
53152;DHT22;39234;53.158;6.322;2023-06-10T03:29:56;13.60;99.90
53152;DHT22;39234;53.158;6.322;2023-06-10T03:32:21;13.50;99.90
53152;DHT22;39234;53.158;6.322;2023-06-10T03:34:47;13.60;99.90
53152;DHT22;39234;53.158;6.322;2023-06-10T03:37:14;13.60;99.90
53152;DHT22;39234;53.158;6.322;2023-06-10T03:39:39;13.60;99.90
53152;DHT22;39234;53.158;6.322;2023-06-10T03:42:05;13.50;99.90
53152;DHT22;39234;53.158;6.322;2023-06-10T03:44:31;13.40;99.90
53152;DHT22;39234;53.158;6.322;2023-06-10T03:46:57;13.60;99.90
53152;DHT22;39234;53.158;6.322;2023-06-10T03:49:23;13.60;99.90
53152;DHT22;39234;53.158;6.322;2023-06-10T03:51:51;13.60;99.90
53152;DHT22;39234;53.158;6.322;2023-06-10T03:54:16;13.60;99.90
53152;DHT22;39234;53.158;6.322;2023-06-10T03:56:42;13.40;99.90
53152;DHT22;39234;53.158;6.322;2023-06-10T03:59:08;13.50;99.90
53152;DHT22;39234;53.158;6.322;2023-06-10T04:01:34;13.50;99.90
53152;DHT22;39234;53.158;6.322;2023-06-10T04:04:00;13.60;99.90
53152;DHT22;39234;53.158;6.322;2023-06-10T04:06:26;13.70;99.90
53152;DHT22;39234;53.158;6.322;2023-06-10T04:08:55;13.80;99.90
53152;DHT22;39234;53.158;6.322;2023-06-10T04:11:23;13.60;99.90
53152;DHT22;39234;53.158;6.322;2023-06-10T04:13:49;14.50;99.90
53152;DHT22;39234;53.158;6.322;2023-06-10T04:16:15;13.90;99.90
53152;DHT22;39234;53.158;6.322;2023-06-10T04:18:41;13.90;99.90
53152;DHT22;39234;53.158;6.322;2023-06-10T04:21:07;14.00;99.90
53152;DHT22;39234;53.158;6.322;2023-06-10T04:23:35;14.10;99.90
53152;DHT22;39234;53.158;6.322;2023-06-10T04:26:02;13.90;99.90
53152;DHT22;39234;53.158;6.322;2023-06-10T04:28:28;14.30;99.90
53152;DHT22;39234;53.158;6.322;2023-06-10T04:30:54;14.10;99.90
53152;DHT22;39234;53.158;6.322;2023-06-10T04:33:19;14.30;99.90
53152;DHT22;39234;53.158;6.322;2023-06-10T04:35:45;14.20;99.90
53152;DHT22;39234;53.158;6.322;2023-06-10T04:38:13;14.40;99.90
53152;DHT22;39234;53.158;6.322;2023-06-10T04:40:39;14.40;99.90
53152;DHT22;39234;53.158;6.322;2023-06-10T04:43:05;14.80;99.90
53152;DHT22;39234;53.158;6.322;2023-06-10T04:45:31;14.40;99.90
53152;DHT22;39234;53.158;6.322;2023-06-10T04:47:57;14.60;99.90
53152;DHT22;39234;53.158;6.322;2023-06-10T04:50:23;14.30;99.90
53152;DHT22;39234;53.158;6.322;2023-06-10T04:52:49;14.40;99.90
53152;DHT22;39234;53.158;6.322;2023-06-10T04:55:16;14.70;99.90
53152;DHT22;39234;53.158;6.322;2023-06-10T04:57:41;14.50;99.90
53152;DHT22;39234;53.158;6.322;2023-06-10T05:00:07;14.70;99.90
53152;DHT22;39234;53.158;6.322;2023-06-10T05:02:34;14.60;99.90
53152;DHT22;39234;53.158;6.322;2023-06-10T05:05:00;14.70;99.90
53152;DHT22;39234;53.158;6.322;2023-06-10T05:07:25;14.80;99.90
53152;DHT22;39234;53.158;6.322;2023-06-10T05:09:51;14.80;99.90
53152;DHT22;39234;53.158;6.322;2023-06-10T05:12:17;14.90;99.90
53152;DHT22;39234;53.158;6.322;2023-06-10T05:14:43;14.90;99.90
53152;DHT22;39234;53.158;6.322;2023-06-10T05:17:10;15.10;99.90
53152;DHT22;39234;53.158;6.322;2023-06-10T05:19:36;15.00;99.90
53152;DHT22;39234;53.158;6.322;2023-06-10T05:22:03;15.20;99.90
53152;DHT22;39234;53.158;6.322;2023-06-10T05:24:28;13.70;99.90
53152;DHT22;39234;53.158;6.322;2023-06-10T05:26:54;15.30;99.90
53152;DHT22;39234;53.158;6.322;2023-06-10T05:29:20;15.30;99.90
53152;DHT22;39234;53.158;6.322;2023-06-10T05:31:45;15.20;99.90
53152;DHT22;39234;53.158;6.322;2023-06-10T05:34:11;15.30;99.90
53152;DHT22;39234;53.158;6.322;2023-06-10T05:36:37;15.30;99.90
53152;DHT22;39234;53.158;6.322;2023-06-10T05:39:03;15.40;99.90
53152;DHT22;39234;53.158;6.322;2023-06-10T05:41:29;15.30;99.90
53152;DHT22;39234;53.158;6.322;2023-06-10T05:43:55;15.40;99.90
53152;DHT22;39234;53.158;6.322;2023-06-10T05:46:20;15.50;99.90
53152;DHT22;39234;53.158;6.322;2023-06-10T05:48:46;15.50;99.90
53152;DHT22;39234;53.158;6.322;2023-06-10T05:51:12;15.60;99.90
53152;DHT22;39234;53.158;6.322;2023-06-10T05:53:37;15.80;99.90
53152;DHT22;39234;53.158;6.322;2023-06-10T05:56:04;15.60;99.90
53152;DHT22;39234;53.158;6.322;2023-06-10T05:58:30;15.80;99.90
53152;DHT22;39234;53.158;6.322;2023-06-10T06:00:55;15.80;99.90
53152;DHT22;39234;53.158;6.322;2023-06-10T06:03:21;16.10;99.90
53152;DHT22;39234;53.158;6.322;2023-06-10T06:05:47;16.20;99.90
53152;DHT22;39234;53.158;6.322;2023-06-10T06:08:12;16.10;99.90
53152;DHT22;39234;53.158;6.322;2023-06-10T06:10:45;16.10;99.90
53152;DHT22;39234;53.158;6.322;2023-06-10T06:13:10;16.10;99.90
53152;DHT22;39234;53.158;6.322;2023-06-10T06:15:36;16.40;99.90
53152;DHT22;39234;53.158;6.322;2023-06-10T06:18:02;17.20;99.90
53152;DHT22;39234;53.158;6.322;2023-06-10T06:20:27;17.30;99.90
53152;DHT22;39234;53.158;6.322;2023-06-10T06:22:53;17.50;99.90
53152;DHT22;39234;53.158;6.322;2023-06-10T06:25:19;17.50;99.90
53152;DHT22;39234;53.158;6.322;2023-06-10T06:27:45;17.50;99.90
53152;DHT22;39234;53.158;6.322;2023-06-10T06:30:11;17.60;99.90
53152;DHT22;39234;53.158;6.322;2023-06-10T06:32:37;17.80;99.90
53152;DHT22;39234;53.158;6.322;2023-06-10T06:35:03;17.80;99.90
53152;DHT22;39234;53.158;6.322;2023-06-10T06:37:31;17.80;99.90
53152;DHT22;39234;53.158;6.322;2023-06-10T06:39:58;17.80;99.90
53152;DHT22;39234;53.158;6.322;2023-06-10T06:42:24;17.80;99.90
53152;DHT22;39234;53.158;6.322;2023-06-10T06:44:49;17.90;99.90
53152;DHT22;39234;53.158;6.322;2023-06-10T06:47:15;18.00;99.90
53152;DHT22;39234;53.158;6.322;2023-06-10T06:49:45;18.00;99.90
53152;DHT22;39234;53.158;6.322;2023-06-10T06:52:11;18.70;99.90
53152;DHT22;39234;53.158;6.322;2023-06-10T06:54:37;19.20;99.90
53152;DHT22;39234;53.158;6.322;2023-06-10T06:57:03;19.40;99.90
53152;DHT22;39234;53.158;6.322;2023-06-10T06:59:29;19.10;99.90
53152;DHT22;39234;53.158;6.322;2023-06-10T07:01:55;19.20;99.90
53152;DHT22;39234;53.158;6.322;2023-06-10T07:04:20;19.30;99.90
53152;DHT22;39234;53.158;6.322;2023-06-10T07:06:48;19.40;99.90
53152;DHT22;39234;53.158;6.322;2023-06-10T07:09:14;19.50;99.90
53152;DHT22;39234;53.158;6.322;2023-06-10T07:11:40;19.80;99.90
53152;DHT22;39234;53.158;6.322;2023-06-10T07:14:06;20.70;99.90
53152;DHT22;39234;53.158;6.322;2023-06-10T07:16:32;21.50;99.90
53152;DHT22;39234;53.158;6.322;2023-06-10T07:18:58;22.60;99.90
53152;DHT22;39234;53.158;6.322;2023-06-10T07:21:23;23.40;99.90
53152;DHT22;39234;53.158;6.322;2023-06-10T07:23:49;24.40;99.90
53152;DHT22;39234;53.158;6.322;2023-06-10T07:26:17;25.60;99.90
53152;DHT22;39234;53.158;6.322;2023-06-10T07:28:43;26.10;99.90
53152;DHT22;39234;53.158;6.322;2023-06-10T07:31:09;26.80;99.90
53152;DHT22;39234;53.158;6.322;2023-06-10T07:33:34;26.80;99.90
53152;DHT22;39234;53.158;6.322;2023-06-10T07:36:00;27.40;99.90
53152;DHT22;39234;53.158;6.322;2023-06-10T07:38:26;27.30;99.90
53152;DHT22;39234;53.158;6.322;2023-06-10T07:40:52;27.30;99.90
53152;DHT22;39234;53.158;6.322;2023-06-10T07:43:18;27.20;99.90
53152;DHT22;39234;53.158;6.322;2023-06-10T07:45:44;27.90;99.90
53152;DHT22;39234;53.158;6.322;2023-06-10T07:48:10;28.00;99.90
53152;DHT22;39234;53.158;6.322;2023-06-10T07:50:36;28.10;99.90
53152;DHT22;39234;53.158;6.322;2023-06-10T07:53:02;28.10;99.90
53152;DHT22;39234;53.158;6.322;2023-06-10T07:55:27;28.10;99.90
53152;DHT22;39234;53.158;6.322;2023-06-10T07:57:54;28.10;99.90
53152;DHT22;39234;53.158;6.322;2023-06-10T08:00:20;28.00;99.90
53152;DHT22;39234;53.158;6.322;2023-06-10T08:02:46;28.00;99.90
53152;DHT22;39234;53.158;6.322;2023-06-10T08:05:12;28.00;99.90
53152;DHT22;39234;53.158;6.322;2023-06-10T08:07:39;28.30;99.90
53152;DHT22;39234;53.158;6.322;2023-06-10T08:10:06;28.10;99.90
53152;DHT22;39234;53.158;6.322;2023-06-10T08:12:33;27.90;99.90
53152;DHT22;39234;53.158;6.322;2023-06-10T08:14:59;28.00;99.90
53152;DHT22;39234;53.158;6.322;2023-06-10T08:17:25;28.30;99.90
53152;DHT22;39234;53.158;6.322;2023-06-10T08:19:51;28.40;99.90
53152;DHT22;39234;53.158;6.322;2023-06-10T08:22:16;28.00;99.90
53152;DHT22;39234;53.158;6.322;2023-06-10T08:24:42;27.90;99.90
53152;DHT22;39234;53.158;6.322;2023-06-10T08:27:08;27.60;99.90
53152;DHT22;39234;53.158;6.322;2023-06-10T08:29:34;27.90;99.90
53152;DHT22;39234;53.158;6.322;2023-06-10T08:32:00;28.20;99.90
53152;DHT22;39234;53.158;6.322;2023-06-10T08:34:26;28.20;99.90
53152;DHT22;39234;53.158;6.322;2023-06-10T08:36:52;27.80;99.90
53152;DHT22;39234;53.158;6.322;2023-06-10T08:39:21;27.60;99.90
53152;DHT22;39234;53.158;6.322;2023-06-10T08:44:29;27.20;99.90
53152;DHT22;39234;53.158;6.322;2023-06-10T08:46:59;27.40;99.90
53152;DHT22;39234;53.158;6.322;2023-06-10T08:49:26;27.50;99.90
53152;DHT22;39234;53.158;6.322;2023-06-10T08:51:59;27.60;99.90
53152;DHT22;39234;53.158;6.322;2023-06-10T08:54:33;28.00;99.90
53152;DHT22;39234;53.158;6.322;2023-06-10T08:57:06;27.90;99.90
53152;DHT22;39234;53.158;6.322;2023-06-10T08:59:32;27.70;99.90
53152;DHT22;39234;53.158;6.322;2023-06-10T09:01:58;27.90;99.90
53152;DHT22;39234;53.158;6.322;2023-06-10T09:04:25;27.90;99.90
53152;DHT22;39234;53.158;6.322;2023-06-10T09:06:51;27.60;99.90
53152;DHT22;39234;53.158;6.322;2023-06-10T09:09:18;27.50;99.90
53152;DHT22;39234;53.158;6.322;2023-06-10T09:11:46;27.20;99.90
53152;DHT22;39234;53.158;6.322;2023-06-10T09:14:12;26.90;99.90
53152;DHT22;39234;53.158;6.322;2023-06-10T09:16:38;26.80;99.90
53152;DHT22;39234;53.158;6.322;2023-06-10T09:19:05;26.10;99.90
53152;DHT22;39234;53.158;6.322;2023-06-10T09:21:34;25.70;99.90
53152;DHT22;39234;53.158;6.322;2023-06-10T09:24:01;25.20;99.90
53152;DHT22;39234;53.158;6.322;2023-06-10T09:26:30;24.60;99.90
53152;DHT22;39234;53.158;6.322;2023-06-10T09:29:06;24.60;99.90
53152;DHT22;39234;53.158;6.322;2023-06-10T09:31:35;24.40;99.90
53152;DHT22;39234;53.158;6.322;2023-06-10T09:34:11;24.30;99.90
53152;DHT22;39234;53.158;6.322;2023-06-10T09:36:38;23.90;99.90
53152;DHT22;39234;53.158;6.322;2023-06-10T09:39:04;23.80;99.90
53152;DHT22;39234;53.158;6.322;2023-06-10T09:41:40;24.00;99.90
53152;DHT22;39234;53.158;6.322;2023-06-10T09:44:13;24.00;99.90
53152;DHT22;39234;53.158;6.322;2023-06-10T09:46:40;24.50;99.90
53152;DHT22;39234;53.158;6.322;2023-06-10T09:49:06;24.30;99.90
53152;DHT22;39234;53.158;6.322;2023-06-10T09:51:32;24.30;99.90
53152;DHT22;39234;53.158;6.322;2023-06-10T09:53:59;24.70;99.90
53152;DHT22;39234;53.158;6.322;2023-06-10T09:56:35;24.70;99.90
53152;DHT22;39234;53.158;6.322;2023-06-10T09:59:01;24.60;99.90
53152;DHT22;39234;53.158;6.322;2023-06-10T10:01:27;24.80;99.90
53152;DHT22;39234;53.158;6.322;2023-06-10T10:03:53;24.70;99.90
53152;DHT22;39234;53.158;6.322;2023-06-10T10:06:20;24.50;99.90
53152;DHT22;39234;53.158;6.322;2023-06-10T10:08:47;24.70;99.90
53152;DHT22;39234;53.158;6.322;2023-06-10T10:11:16;24.80;99.90
53152;DHT22;39234;53.158;6.322;2023-06-10T10:13:42;24.70;99.90
53152;DHT22;39234;53.158;6.322;2023-06-10T10:16:16;24.80;99.90
53152;DHT22;39234;53.158;6.322;2023-06-10T10:18:45;25.60;99.90
53152;DHT22;39234;53.158;6.322;2023-06-10T10:21:13;25.10;99.90
53152;DHT22;39234;53.158;6.322;2023-06-10T10:26:24;25.20;99.90
53152;DHT22;39234;53.158;6.322;2023-06-10T10:31:35;25.10;99.90
53152;DHT22;39234;53.158;6.322;2023-06-10T10:34:06;25.20;99.90
53152;DHT22;39234;53.158;6.322;2023-06-10T10:36:32;25.50;99.90
53152;DHT22;39234;53.158;6.322;2023-06-10T10:38:58;25.70;99.90
53152;DHT22;39234;53.158;6.322;2023-06-10T10:41:28;26.00;99.90
53152;DHT22;39234;53.158;6.322;2023-06-10T10:43:55;25.70;99.90
53152;DHT22;39234;53.158;6.322;2023-06-10T10:46:21;25.60;99.90
53152;DHT22;39234;53.158;6.322;2023-06-10T10:48:52;25.80;99.90
53152;DHT22;39234;53.158;6.322;2023-06-10T10:51:18;25.70;99.90
53152;DHT22;39234;53.158;6.322;2023-06-10T10:53:44;25.90;99.90
53152;DHT22;39234;53.158;6.322;2023-06-10T10:56:30;25.80;99.90
53152;DHT22;39234;53.158;6.322;2023-06-10T10:59:04;26.10;99.90
53152;DHT22;39234;53.158;6.322;2023-06-10T11:01:41;26.20;99.90
53152;DHT22;39234;53.158;6.322;2023-06-10T11:04:08;26.20;99.90
53152;DHT22;39234;53.158;6.322;2023-06-10T11:06:35;26.40;99.90
53152;DHT22;39234;53.158;6.322;2023-06-10T11:09:00;26.40;99.90
53152;DHT22;39234;53.158;6.322;2023-06-10T11:11:49;26.20;99.90
53152;DHT22;39234;53.158;6.322;2023-06-10T11:14:29;26.20;99.90
53152;DHT22;39234;53.158;6.322;2023-06-10T11:16:59;26.40;99.90
53152;DHT22;39234;53.158;6.322;2023-06-10T11:19:37;26.10;99.90
53152;DHT22;39234;53.158;6.322;2023-06-10T11:22:07;26.10;99.90
53152;DHT22;39234;53.158;6.322;2023-06-10T11:24:33;26.10;99.90
53152;DHT22;39234;53.158;6.322;2023-06-10T11:27:16;26.30;99.90
53152;DHT22;39234;53.158;6.322;2023-06-10T11:30:17;26.50;99.90
53152;DHT22;39234;53.158;6.322;2023-06-10T11:32:44;26.50;99.90
53152;DHT22;39234;53.158;6.322;2023-06-10T11:35:10;26.40;99.90
53152;DHT22;39234;53.158;6.322;2023-06-10T11:37:36;26.40;99.90
53152;DHT22;39234;53.158;6.322;2023-06-10T11:40:02;26.60;99.90
53152;DHT22;39234;53.158;6.322;2023-06-10T11:42:28;26.50;99.90
53152;DHT22;39234;53.158;6.322;2023-06-10T11:44:54;26.40;99.90
53152;DHT22;39234;53.158;6.322;2023-06-10T11:47:20;26.40;99.90
53152;DHT22;39234;53.158;6.322;2023-06-10T11:49:56;26.60;99.90
53152;DHT22;39234;53.158;6.322;2023-06-10T11:52:29;26.30;99.90
53152;DHT22;39234;53.158;6.322;2023-06-10T11:54:57;26.40;99.90
53152;DHT22;39234;53.158;6.322;2023-06-10T11:57:23;26.60;99.90
53152;DHT22;39234;53.158;6.322;2023-06-10T11:59:49;26.50;99.90
53152;DHT22;39234;53.158;6.322;2023-06-10T12:02:16;26.40;99.90
53152;DHT22;39234;53.158;6.322;2023-06-10T12:04:41;26.40;99.90
53152;DHT22;39234;53.158;6.322;2023-06-10T12:07:07;26.20;99.90
53152;DHT22;39234;53.158;6.322;2023-06-10T12:09:33;26.60;99.90
53152;DHT22;39234;53.158;6.322;2023-06-10T12:12:01;26.50;99.90
53152;DHT22;39234;53.158;6.322;2023-06-10T12:17:21;26.70;99.90
53152;DHT22;39234;53.158;6.322;2023-06-10T12:19:48;26.50;99.90
53152;DHT22;39234;53.158;6.322;2023-06-10T12:22:14;26.70;99.90
53152;DHT22;39234;53.158;6.322;2023-06-10T12:24:45;26.80;99.90
53152;DHT22;39234;53.158;6.322;2023-06-10T12:27:13;26.90;99.90
53152;DHT22;39234;53.158;6.322;2023-06-10T12:29:39;27.00;99.90
53152;DHT22;39234;53.158;6.322;2023-06-10T12:32:16;27.10;99.90
53152;DHT22;39234;53.158;6.322;2023-06-10T12:34:41;27.20;99.90
53152;DHT22;39234;53.158;6.322;2023-06-10T12:37:11;27.10;99.90
53152;DHT22;39234;53.158;6.322;2023-06-10T12:39:41;27.00;99.90
53152;DHT22;39234;53.158;6.322;2023-06-10T12:42:08;27.30;99.90
53152;DHT22;39234;53.158;6.322;2023-06-10T12:44:41;27.30;99.90
53152;DHT22;39234;53.158;6.322;2023-06-10T12:47:10;27.10;99.90
53152;DHT22;39234;53.158;6.322;2023-06-10T12:49:39;27.10;99.90
53152;DHT22;39234;53.158;6.322;2023-06-10T12:52:06;26.70;99.90
53152;DHT22;39234;53.158;6.322;2023-06-10T12:54:31;26.80;99.90
53152;DHT22;39234;53.158;6.322;2023-06-10T12:56:57;26.70;99.90
53152;DHT22;39234;53.158;6.322;2023-06-10T12:59:23;26.70;99.90
53152;DHT22;39234;53.158;6.322;2023-06-10T13:01:52;26.70;99.90
53152;DHT22;39234;53.158;6.322;2023-06-10T13:04:19;26.70;99.90
53152;DHT22;39234;53.158;6.322;2023-06-10T13:06:45;26.60;99.90
53152;DHT22;39234;53.158;6.322;2023-06-10T13:09:15;26.60;99.90
53152;DHT22;39234;53.158;6.322;2023-06-10T13:11:41;26.30;99.90
53152;DHT22;39234;53.158;6.322;2023-06-10T13:14:09;26.50;99.90
53152;DHT22;39234;53.158;6.322;2023-06-10T13:16:35;26.40;99.90
53152;DHT22;39234;53.158;6.322;2023-06-10T13:19:04;26.40;99.90
53152;DHT22;39234;53.158;6.322;2023-06-10T13:21:34;26.50;99.90
53152;DHT22;39234;53.158;6.322;2023-06-10T13:23:59;25.60;99.90
53152;DHT22;39234;53.158;6.322;2023-06-10T13:26:25;26.60;99.90
53152;DHT22;39234;53.158;6.322;2023-06-10T13:28:51;26.80;99.90
53152;DHT22;39234;53.158;6.322;2023-06-10T13:31:18;26.50;99.90
53152;DHT22;39234;53.158;6.322;2023-06-10T13:33:44;26.60;99.90
53152;DHT22;39234;53.158;6.322;2023-06-10T13:36:10;26.60;99.90
53152;DHT22;39234;53.158;6.322;2023-06-10T13:38:36;26.40;99.90
53152;DHT22;39234;53.158;6.322;2023-06-10T13:41:02;26.80;99.90
53152;DHT22;39234;53.158;6.322;2023-06-10T13:43:27;26.70;99.90
53152;DHT22;39234;53.158;6.322;2023-06-10T13:45:54;27.10;99.90
53152;DHT22;39234;53.158;6.322;2023-06-10T13:48:20;26.80;99.90
53152;DHT22;39234;53.158;6.322;2023-06-10T13:50:46;26.70;99.90
53152;DHT22;39234;53.158;6.322;2023-06-10T13:53:12;26.60;99.90
53152;DHT22;39234;53.158;6.322;2023-06-10T13:55:38;26.80;99.90
53152;DHT22;39234;53.158;6.322;2023-06-10T13:58:04;26.60;99.90
53152;DHT22;39234;53.158;6.322;2023-06-10T14:00:30;26.60;99.90
53152;DHT22;39234;53.158;6.322;2023-06-10T14:02:56;26.40;99.90
53152;DHT22;39234;53.158;6.322;2023-06-10T14:05:22;26.40;99.90
53152;DHT22;39234;53.158;6.322;2023-06-10T14:07:48;26.30;99.90
53152;DHT22;39234;53.158;6.322;2023-06-10T14:10:14;26.30;99.90
53152;DHT22;39234;53.158;6.322;2023-06-10T14:12:40;26.50;99.90
53152;DHT22;39234;53.158;6.322;2023-06-10T14:15:06;26.40;99.90
53152;DHT22;39234;53.158;6.322;2023-06-10T14:17:32;26.30;99.90
53152;DHT22;39234;53.158;6.322;2023-06-10T14:19:57;26.20;99.90
53152;DHT22;39234;53.158;6.322;2023-06-10T14:22:24;26.40;99.90
53152;DHT22;39234;53.158;6.322;2023-06-10T14:24:49;26.30;99.90
53152;DHT22;39234;53.158;6.322;2023-06-10T14:27:15;26.40;99.90
53152;DHT22;39234;53.158;6.322;2023-06-10T14:29:41;26.50;99.90
53152;DHT22;39234;53.158;6.322;2023-06-10T14:32:07;25.10;99.90
53152;DHT22;39234;53.158;6.322;2023-06-10T14:34:32;26.70;99.90
53152;DHT22;39234;53.158;6.322;2023-06-10T14:37:02;26.40;99.90
53152;DHT22;39234;53.158;6.322;2023-06-10T14:39:33;26.50;99.90
53152;DHT22;39234;53.158;6.322;2023-06-10T14:41:58;26.40;99.90
53152;DHT22;39234;53.158;6.322;2023-06-10T14:44:24;26.60;99.90
53152;DHT22;39234;53.158;6.322;2023-06-10T14:46:50;26.60;99.90
53152;DHT22;39234;53.158;6.322;2023-06-10T14:49:16;26.40;99.90
53152;DHT22;39234;53.158;6.322;2023-06-10T14:51:41;26.30;99.90
53152;DHT22;39234;53.158;6.322;2023-06-10T14:54:07;26.60;99.90
53152;DHT22;39234;53.158;6.322;2023-06-10T14:56:33;26.40;99.90
53152;DHT22;39234;53.158;6.322;2023-06-10T14:58:58;26.30;99.90
53152;DHT22;39234;53.158;6.322;2023-06-10T15:01:24;26.30;99.90
53152;DHT22;39234;53.158;6.322;2023-06-10T15:03:50;26.30;99.90
53152;DHT22;39234;53.158;6.322;2023-06-10T15:06:16;26.30;99.90
53152;DHT22;39234;53.158;6.322;2023-06-10T15:08:47;26.30;99.90
53152;DHT22;39234;53.158;6.322;2023-06-10T15:11:16;26.50;99.90
53152;DHT22;39234;53.158;6.322;2023-06-10T15:13:42;26.40;99.70
53152;DHT22;39234;53.158;6.322;2023-06-10T15:16:07;26.40;99.90
53152;DHT22;39234;53.158;6.322;2023-06-10T15:18:33;26.40;99.90
53152;DHT22;39234;53.158;6.322;2023-06-10T15:20:59;26.10;99.90
53152;DHT22;39234;53.158;6.322;2023-06-10T15:23:25;26.20;99.90
53152;DHT22;39234;53.158;6.322;2023-06-10T15:25:50;26.30;99.90
53152;DHT22;39234;53.158;6.322;2023-06-10T15:28:16;26.50;99.90
53152;DHT22;39234;53.158;6.322;2023-06-10T15:30:42;26.50;99.80
53152;DHT22;39234;53.158;6.322;2023-06-10T15:33:07;26.20;99.90
53152;DHT22;39234;53.158;6.322;2023-06-10T15:35:33;26.10;99.90
53152;DHT22;39234;53.158;6.322;2023-06-10T15:37:59;26.30;99.90
53152;DHT22;39234;53.158;6.322;2023-06-10T15:40:25;26.50;99.90
53152;DHT22;39234;53.158;6.322;2023-06-10T15:42:51;24.30;99.90